createdAt,value
2019-03-13T00:01:07.748Z,95675.94
2019-03-13T00:06:29.475Z,95691.97
2019-03-13T00:08:58.191Z,95700.39
2019-03-13T00:11:26.848Z,95694.13
2019-03-13T00:13:55.642Z,95696.34
2019-03-13T00:16:25.067Z,95704.75
2019-03-13T00:18:53.832Z,95706.19
2019-03-13T00:21:22.475Z,95702.31
2019-03-13T00:23:51.025Z,95705.02
2019-03-13T00:26:19.852Z,95714.02
2019-03-13T00:28:50.234Z,95725.04
2019-03-13T00:31:38.372Z,95724.00
2019-03-13T00:34:07.072Z,95723.80
2019-03-13T00:36:54.903Z,95743.77
2019-03-13T00:39:23.683Z,95746.33
2019-03-13T00:41:52.378Z,95771.00
2019-03-13T00:44:40.305Z,95822.20
2019-03-13T00:47:09.215Z,95836.70
2019-03-13T00:49:57.036Z,95845.37
2019-03-13T00:52:25.733Z,95827.52
2019-03-13T00:54:54.383Z,95845.73
2019-03-13T00:57:23.004Z,95840.42
2019-03-13T01:05:45.438Z,95858.12
2019-03-13T01:08:33.418Z,95900.06
2019-03-13T01:11:02.110Z,95895.98
2019-03-13T01:13:30.802Z,95905.22
2019-03-13T01:15:59.534Z,95945.14
2019-03-13T01:18:28.177Z,95923.92
2019-03-13T01:20:57.404Z,95923.66
2019-03-13T01:23:26.066Z,95950.99
2019-03-13T01:25:54.744Z,95975.80
2019-03-13T01:28:23.390Z,95996.97
2019-03-13T01:31:11.296Z,95972.42
2019-03-13T01:33:40.047Z,95988.73
2019-03-13T01:36:08.810Z,95986.18
2019-03-13T01:38:37.704Z,95988.66
2019-03-13T01:41:06.699Z,95988.09
2019-03-13T01:43:35.772Z,96017.69
2019-03-13T01:48:53.732Z,96022.52
2019-03-13T01:51:22.873Z,96024.52
2019-03-13T01:56:25.826Z,96045.83
2019-03-13T01:58:55.231Z,96063.90
2019-03-13T02:04:19.364Z,96066.32
2019-03-13T02:07:27.858Z,96100.47
2019-03-13T02:09:56.509Z,96097.40
2019-03-13T02:12:44.320Z,96093.55
2019-03-13T02:15:52.804Z,96082.32
2019-03-13T02:18:21.434Z,96087.66
2019-03-13T02:21:09.320Z,96087.66
2019-03-13T02:26:13.377Z,96094.46
2019-03-13T02:28:42.015Z,96095.97
2019-03-13T02:31:10.750Z,96089.06
2019-03-13T02:33:41.073Z,96111.50
2019-03-13T02:36:29.143Z,96091.09
2019-03-13T02:38:57.836Z,96116.33
2019-03-13T02:41:26.730Z,96126.23
2019-03-13T02:44:14.585Z,96103.78
2019-03-13T02:46:43.265Z,96116.72
2019-03-13T02:49:31.179Z,96109.75
2019-03-13T02:51:59.826Z,96114.36
2019-03-13T02:54:29.142Z,96136.78
2019-03-13T02:57:17.592Z,96145.33
2019-03-13T02:59:46.754Z,96141.46
2019-03-13T03:04:51.741Z,96147.84
2019-03-13T03:07:20.656Z,96153.63
2019-03-13T03:12:44.099Z,96161.87
2019-03-13T03:15:32.165Z,96157.13
2019-03-13T03:18:00.817Z,96164.50
2019-03-13T03:20:29.523Z,96170.83
2019-03-13T03:22:58.426Z,96179.47
2019-03-13T03:25:28.704Z,96187.16
2019-03-13T03:27:57.415Z,96184.55
2019-03-13T03:30:26.300Z,96180.91
2019-03-13T03:33:14.271Z,96183.30
2019-03-13T03:35:43.079Z,96189.93
2019-03-13T03:38:30.956Z,96200.20
2019-03-13T03:40:59.680Z,96198.09
2019-03-13T03:43:47.874Z,96202.56
2019-03-13T03:46:16.545Z,96202.47
2019-03-13T03:48:45.245Z,96199.96
2019-03-13T03:54:01.506Z,96206.66
2019-03-13T03:56:30.368Z,96208.98
2019-03-13T03:58:59.041Z,96211.52
2019-03-13T04:01:27.808Z,96207.97
2019-03-13T04:03:56.586Z,96211.22
2019-03-13T04:07:05.024Z,96219.91
2019-03-13T04:09:33.701Z,96213.27
2019-03-13T04:12:02.448Z,96228.45
2019-03-13T04:14:31.091Z,96226.02
2019-03-13T04:16:59.718Z,96231.86
2019-03-13T04:19:28.398Z,96234.34
2019-03-13T04:22:16.568Z,96229.95
2019-03-13T04:24:46.912Z,96224.16
2019-03-13T04:27:55.994Z,96228.45
2019-03-13T04:30:25.502Z,96222.00
2019-03-13T04:33:13.965Z,96229.09
2019-03-13T04:38:17.023Z,96239.12
2019-03-13T04:41:04.863Z,96236.09
2019-03-13T04:43:52.882Z,96235.58
2019-03-13T04:46:40.985Z,96234.57
2019-03-13T04:49:09.756Z,96249.67
2019-03-13T04:51:38.676Z,96239.28
2019-03-13T04:54:07.285Z,96249.14
2019-03-13T04:56:35.941Z,96250.62
2019-03-13T04:59:04.644Z,96258.30
2019-03-13T05:01:33.369Z,96267.21
2019-03-13T05:04:01.973Z,96261.80
2019-03-13T05:06:31.008Z,96267.63
2019-03-13T05:09:39.451Z,96269.90
2019-03-13T05:12:27.296Z,96271.53
2019-03-13T05:14:55.970Z,96283.30
2019-03-13T05:17:24.723Z,96276.72
2019-03-13T05:19:53.512Z,96286.30
2019-03-13T05:22:22.354Z,96282.33
2019-03-13T05:24:51.217Z,96279.25
2019-03-13T05:30:47.360Z,96283.75
2019-03-13T05:33:15.995Z,96280.08
2019-03-13T05:35:44.658Z,96275.89
2019-03-13T05:38:13.369Z,96273.64
2019-03-13T05:40:42.258Z,96273.53
2019-03-13T05:43:11.069Z,96272.54
2019-03-13T05:45:39.764Z,96273.22
2019-03-13T05:51:16.786Z,96272.41
2019-03-13T05:54:04.616Z,96278.44
2019-03-13T05:56:33.315Z,96283.52
2019-03-13T05:59:21.080Z,96289.88
2019-03-13T06:01:49.783Z,96279.03
2019-03-13T06:04:18.508Z,96280.92
2019-03-13T06:06:47.228Z,96279.30
2019-03-13T06:09:35.071Z,96278.11
2019-03-13T06:12:04.092Z,96285.12
2019-03-13T06:14:32.787Z,96285.15
2019-03-13T06:17:01.357Z,96293.19
2019-03-13T06:19:30.069Z,96294.91
2019-03-13T06:21:58.776Z,96305.20
2019-03-13T06:24:27.474Z,96300.11
2019-03-13T06:27:15.351Z,96306.41
2019-03-13T06:30:03.689Z,96302.20
2019-03-13T06:32:32.379Z,96303.52
2019-03-13T06:35:23.449Z,96300.33
2019-03-13T06:37:50.580Z,96300.39
2019-03-13T06:40:59.007Z,96304.66
2019-03-13T06:43:27.779Z,96305.75
2019-03-13T06:45:56.457Z,96309.07
2019-03-13T06:48:25.094Z,96312.39
2019-03-13T06:51:13.025Z,96316.28
2019-03-13T06:53:41.714Z,96316.75
2019-03-13T06:56:10.409Z,96317.20
2019-03-13T07:01:34.059Z,96309.09
2019-03-13T07:04:21.861Z,96306.18
2019-03-13T07:12:24.196Z,96314.94
2019-03-13T07:18:01.219Z,96307.00
2019-03-13T07:28:53.243Z,96296.75
2019-03-13T07:32:00.231Z,96296.23
2019-03-13T07:37:37.205Z,96301.48
2019-03-13T07:40:45.649Z,96294.47
2019-03-13T07:43:53.825Z,96291.87
2019-03-13T07:46:41.780Z,96296.66
2019-03-13T07:52:05.333Z,96289.08
2019-03-13T07:54:53.082Z,96291.55
2019-03-13T07:57:40.898Z,96287.93
2019-03-13T08:06:35.283Z,96287.73
2019-03-13T08:12:18.025Z,96287.99
2019-03-13T08:15:05.799Z,96282.94
2019-03-13T08:17:53.625Z,96291.64
2019-03-13T08:26:11.944Z,96279.81
2019-03-13T08:28:59.681Z,96275.85
2019-03-13T08:32:06.685Z,96273.98
2019-03-13T08:34:54.440Z,96286.39
2019-03-13T08:43:06.986Z,96256.34
2019-03-13T08:46:13.896Z,96261.67
2019-03-13T08:49:01.704Z,96248.99
2019-03-13T08:51:49.508Z,96268.91
2019-03-13T08:54:37.286Z,96263.27
2019-03-13T08:57:25.106Z,96256.30
2019-03-13T09:00:12.925Z,96269.13
2019-03-13T09:03:00.779Z,96260.13
2019-03-13T09:06:08.059Z,96251.63
2019-03-13T09:08:55.934Z,96256.91
2019-03-13T09:14:52.153Z,96249.02
2019-03-13T09:17:39.916Z,96264.55
2019-03-13T09:20:48.438Z,96250.93
2019-03-13T09:23:55.465Z,96257.20
2019-03-13T09:29:18.674Z,96263.56
2019-03-13T09:32:06.584Z,96239.27
2019-03-13T09:34:54.370Z,96239.16
2019-03-13T09:37:42.125Z,96251.76
2019-03-13T09:40:50.611Z,96238.05
2019-03-13T09:43:38.439Z,96244.92
2019-03-13T09:46:26.231Z,96254.00
2019-03-13T09:49:14.837Z,96241.51
2019-03-13T09:54:52.790Z,96225.87
2019-03-13T09:57:40.619Z,96210.05
2019-03-13T10:00:49.069Z,96225.98
2019-03-13T10:03:36.854Z,96215.63
2019-03-13T10:06:24.683Z,96240.16
2019-03-13T10:09:12.365Z,96233.91
2019-03-13T10:17:11.521Z,96217.02
2019-03-13T10:22:48.453Z,96232.19
2019-03-13T10:25:36.234Z,96235.97
2019-03-13T10:31:03.203Z,96221.83
2019-03-13T10:33:51.000Z,96220.59
2019-03-13T10:39:17.856Z,96218.61
2019-03-13T10:42:05.629Z,96213.41
2019-03-13T10:44:53.455Z,96204.52
2019-03-13T10:47:41.244Z,96199.69
2019-03-13T10:50:49.704Z,96196.91
2019-03-13T10:53:37.466Z,96187.70
2019-03-13T10:59:00.825Z,96177.75
2019-03-13T11:09:49.249Z,96180.52
2019-03-13T11:15:46.853Z,96183.19
2019-03-13T11:21:13.720Z,96170.17
2019-03-13T11:24:01.565Z,96158.38
2019-03-13T11:27:08.625Z,96178.38
2019-03-13T11:32:45.697Z,96161.39
2019-03-13T11:35:33.620Z,96161.10
2019-03-13T11:38:21.394Z,96158.09
2019-03-13T11:41:09.222Z,96159.64
2019-03-13T11:43:57.028Z,96146.80
2019-03-13T11:49:34.063Z,96155.48
2019-03-13T11:54:57.199Z,96152.09
2019-03-13T11:58:04.196Z,96146.52
2019-03-13T12:00:51.966Z,96142.20
2019-03-13T12:03:39.815Z,96143.23
2019-03-13T12:06:27.596Z,96136.02
2019-03-13T12:11:54.471Z,96151.86
2019-03-13T12:17:18.040Z,96154.89
2019-03-13T12:20:05.826Z,96133.15
2019-03-13T12:22:53.672Z,96140.03
2019-03-13T12:25:41.450Z,96145.39
2019-03-13T12:31:04.679Z,96145.06
2019-03-13T12:33:52.448Z,96177.17
2019-03-13T12:36:41.991Z,96144.59
2019-03-13T12:42:10.924Z,96133.58
2019-03-13T12:45:17.960Z,96150.42
2019-03-13T12:56:09.491Z,96113.30
2019-03-13T12:58:57.266Z,96097.66
2019-03-13T13:06:55.847Z,96094.11
2019-03-13T13:09:43.624Z,96096.13
2019-03-13T13:12:31.468Z,96087.62
2019-03-13T13:18:08.472Z,96083.48
2019-03-13T13:20:37.136Z,96071.47
2019-03-13T13:23:05.898Z,96073.81
2019-03-13T13:25:34.551Z,96067.86
2019-03-13T13:28:03.247Z,96064.77
2019-03-13T13:30:31.899Z,96051.48
2019-03-13T13:33:19.799Z,96055.81
2019-03-13T13:35:48.424Z,96066.27
2019-03-13T13:38:57.212Z,96069.55
2019-03-13T13:41:25.915Z,96069.20
2019-03-13T13:43:54.596Z,96080.52
2019-03-13T13:47:03.043Z,96067.70
2019-03-13T13:49:31.751Z,96094.11
2019-03-13T13:52:00.388Z,96075.39
2019-03-13T13:54:29.038Z,96095.88
2019-03-13T13:56:57.741Z,96090.49
2019-03-13T13:59:26.439Z,96107.62
2019-03-13T14:01:55.077Z,96115.52
2019-03-13T14:04:23.756Z,96109.64
2019-03-13T14:06:52.453Z,96129.91
2019-03-13T14:09:21.162Z,96125.59
2019-03-13T14:11:49.842Z,96091.16
2019-03-13T14:14:18.481Z,96109.59
2019-03-13T14:17:06.354Z,96109.40
2019-03-13T14:19:35.006Z,96103.33
2019-03-13T14:22:03.683Z,96105.87
2019-03-13T14:24:32.306Z,96097.94
2019-03-13T14:27:13.607Z,96096.14
2019-03-13T14:29:31.370Z,96102.30
2019-03-13T14:32:19.157Z,96100.75
2019-03-13T14:34:47.951Z,96083.58
2019-03-13T14:37:16.586Z,96080.52
2019-03-13T14:40:04.470Z,96094.59
2019-03-13T14:42:33.055Z,96091.48
2019-03-13T14:45:01.732Z,96087.89
2019-03-13T14:47:30.392Z,96086.86
2019-03-13T14:49:59.152Z,96078.09
2019-03-13T14:52:27.850Z,96065.80
2019-03-13T14:54:56.552Z,96077.28
2019-03-13T14:57:44.402Z,96073.47
2019-03-13T15:00:52.816Z,96084.42
2019-03-13T15:03:21.580Z,96070.41
2019-03-13T15:05:50.234Z,96068.61
2019-03-13T15:08:18.938Z,96066.30
2019-03-13T15:11:06.772Z,96068.87
2019-03-13T15:13:35.510Z,96071.74
2019-03-13T15:16:23.407Z,96068.70
2019-03-13T15:19:11.234Z,96067.41
2019-03-13T15:21:39.814Z,96087.62
2019-03-13T15:24:27.741Z,96063.55
2019-03-13T15:27:15.576Z,96059.21
2019-03-13T15:29:44.282Z,96055.38
2019-03-13T15:32:12.933Z,96052.06
2019-03-13T15:34:41.725Z,96044.65
2019-03-13T15:37:10.335Z,96064.08
2019-03-13T15:39:39.022Z,96043.63
2019-03-13T15:42:07.732Z,96051.77
2019-03-13T15:44:55.649Z,96059.47
2019-03-13T15:47:24.289Z,96053.57
2019-03-13T15:49:53.046Z,96051.25
2019-03-13T15:52:21.690Z,96055.11
2019-03-13T15:55:09.578Z,96048.42
2019-03-13T15:57:38.189Z,96050.71
2019-03-13T16:00:46.655Z,96049.67
2019-03-13T16:03:15.352Z,96042.50
2019-03-13T16:05:44.035Z,96060.13
2019-03-13T16:08:12.718Z,96054.22
2019-03-13T16:10:41.392Z,96052.16
2019-03-13T16:13:10.098Z,96049.60
2019-03-13T16:15:57.932Z,96037.61
2019-03-13T16:18:26.698Z,96042.95
2019-03-13T16:20:55.392Z,96048.36
2019-03-13T16:23:24.099Z,96051.92
2019-03-13T16:25:52.759Z,96044.00
2019-03-13T16:28:21.505Z,96044.23
2019-03-13T16:33:39.406Z,96045.02
2019-03-13T16:36:08.171Z,96046.30
2019-03-13T16:38:36.885Z,96043.01
2019-03-13T16:41:24.801Z,96055.02
2019-03-13T16:43:53.468Z,96050.41
2019-03-13T16:46:22.149Z,96043.25
2019-03-13T16:48:50.799Z,96029.70
2019-03-13T16:51:19.414Z,96045.81
2019-03-13T16:53:51.206Z,96038.39
2019-03-13T16:56:18.408Z,96077.48
2019-03-13T16:58:47.113Z,96026.11
2019-03-13T17:01:15.956Z,96046.06
2019-03-13T17:03:52.105Z,96052.72
2019-03-13T17:06:39.999Z,96037.38
2019-03-13T17:09:08.688Z,96044.25
2019-03-13T17:11:37.340Z,96039.14
2019-03-13T17:14:25.276Z,96063.16
2019-03-13T17:16:54.049Z,96037.08
2019-03-13T17:19:22.700Z,96048.09
2019-03-13T17:24:39.101Z,96047.05
2019-03-13T17:27:07.758Z,96038.37
2019-03-13T17:29:36.409Z,96047.29
2019-03-13T17:32:05.213Z,96049.57
2019-03-13T17:34:33.852Z,96047.27
2019-03-13T17:37:02.558Z,96044.46
2019-03-13T17:39:33.736Z,96057.22
2019-03-13T17:42:01.512Z,96034.23
2019-03-13T17:44:49.612Z,96049.02
2019-03-13T17:47:37.543Z,96044.94
2019-03-13T17:50:26.988Z,96043.63
2019-03-13T17:52:55.708Z,96042.87
2019-03-13T17:56:04.153Z,96053.82
2019-03-13T17:58:32.910Z,96054.34
2019-03-13T18:01:01.626Z,96040.52
2019-03-13T18:03:30.334Z,96032.61
2019-03-13T18:05:58.997Z,96040.00
2019-03-13T18:08:27.700Z,96038.22
2019-03-13T18:10:56.407Z,96030.56
2019-03-13T18:13:25.202Z,96023.63
2019-03-13T18:15:53.944Z,96028.48
2019-03-13T18:18:22.646Z,96036.64
2019-03-13T18:21:10.667Z,96021.32
2019-03-13T18:23:58.524Z,96045.84
2019-03-13T18:26:27.322Z,96025.92
2019-03-13T18:28:56.109Z,96036.91
2019-03-13T18:31:44.321Z,96042.27
2019-03-13T18:34:13.018Z,96035.83
2019-03-13T18:37:21.490Z,96065.80
2019-03-13T18:39:50.133Z,96061.94
2019-03-13T18:42:58.682Z,96059.34
2019-03-13T18:45:46.712Z,96066.34
2019-03-13T18:48:34.598Z,96049.52
2019-03-13T18:51:22.416Z,96057.91
2019-03-13T18:53:51.068Z,96066.08
2019-03-13T18:56:19.739Z,96069.67
2019-03-13T18:59:07.590Z,96072.48
2019-03-13T19:01:36.278Z,96060.98
2019-03-13T19:04:05.139Z,96061.28
2019-03-13T19:06:33.896Z,96050.85
2019-03-13T19:09:02.555Z,96049.77
2019-03-13T19:11:50.765Z,96057.48
2019-03-13T19:17:07.284Z,96046.86
2019-03-13T19:19:35.915Z,96045.91
2019-03-13T19:22:04.688Z,96046.73
2019-03-13T19:24:52.577Z,96037.80
2019-03-13T19:27:21.670Z,96030.98
2019-03-13T19:29:50.534Z,96036.09
2019-03-13T19:32:19.448Z,96025.62
2019-03-13T19:34:48.395Z,96053.94
2019-03-13T19:37:17.153Z,96046.29
2019-03-13T19:39:46.048Z,96052.41
2019-03-13T19:42:17.364Z,96065.69
2019-03-13T19:45:25.146Z,96064.17
2019-03-13T19:47:53.829Z,96075.42
2019-03-13T19:50:22.552Z,96081.45
2019-03-13T19:53:31.443Z,96089.39
2019-03-13T19:56:00.104Z,96106.42
2019-03-13T19:58:28.883Z,96114.54
2019-03-13T20:00:57.913Z,96110.70
2019-03-13T20:03:26.699Z,96118.78
2019-03-13T20:05:55.622Z,96120.58
2019-03-13T20:08:24.530Z,96108.84
2019-03-13T20:11:12.705Z,96118.71
2019-03-13T20:13:41.985Z,96102.36
2019-03-13T20:16:12.451Z,96101.35
2019-03-13T20:18:41.337Z,96104.39
2019-03-13T20:21:10.245Z,96100.08
2019-03-13T20:23:39.161Z,96107.39
2019-03-13T20:26:27.263Z,96108.95
2019-03-13T20:29:35.936Z,96100.20
2019-03-13T20:32:07.261Z,96107.62
2019-03-13T20:34:36.098Z,96112.67
2019-03-13T20:39:44.862Z,96107.02
2019-03-13T20:42:13.757Z,96129.20
2019-03-13T20:47:16.817Z,96116.13
2019-03-13T20:49:48.106Z,96112.25
2019-03-13T20:52:38.989Z,96116.64
2019-03-13T20:55:47.696Z,96119.55
2019-03-13T21:01:23.724Z,96123.25
2019-03-13T21:03:53.560Z,96115.22
2019-03-13T21:06:22.517Z,96114.20
2019-03-13T21:08:54.251Z,96112.09
2019-03-13T21:11:41.827Z,96109.24
2019-03-13T21:14:12.262Z,96100.33
2019-03-13T21:17:00.564Z,96097.25
2019-03-13T21:19:31.168Z,96094.97
2019-03-13T21:22:00.561Z,96099.76
2019-03-13T21:24:29.386Z,96096.72
2019-03-13T21:29:51.995Z,96103.58
2019-03-13T21:32:21.212Z,96106.52
2019-03-13T21:34:50.025Z,96112.31
2019-03-13T21:37:18.719Z,96107.43
2019-03-13T21:39:47.645Z,96096.84
2019-03-13T21:42:16.561Z,96098.77
2019-03-13T21:44:45.456Z,96123.99
2019-03-13T21:47:14.173Z,96110.27
2019-03-13T21:49:42.872Z,96105.77
2019-03-13T21:52:11.673Z,96131.31
2019-03-13T21:54:59.695Z,96112.92
2019-03-13T21:57:47.646Z,96117.45
2019-03-13T22:00:35.839Z,96127.45
2019-03-13T22:03:04.489Z,96132.55
2019-03-13T22:05:33.252Z,96140.20
2019-03-13T22:08:01.970Z,96131.97
2019-03-13T22:10:49.801Z,96131.80
2019-03-13T22:13:18.483Z,96137.85
2019-03-13T22:15:47.126Z,96148.09
2019-03-13T22:18:15.829Z,96158.91
2019-03-13T22:20:44.523Z,96156.56
2019-03-13T22:23:13.202Z,96158.80
2019-03-13T22:26:02.401Z,96169.14
2019-03-13T22:28:31.246Z,96167.00
2019-03-13T22:31:19.036Z,96181.80
2019-03-13T22:34:06.916Z,96178.72
2019-03-13T22:36:54.749Z,96186.66
2019-03-13T22:39:23.427Z,96201.23
2019-03-13T22:41:52.106Z,96194.98
2019-03-13T22:44:20.853Z,96197.85
2019-03-13T22:46:50.480Z,96198.07
2019-03-13T22:49:19.865Z,96200.28
2019-03-13T22:51:48.638Z,96206.72
2019-03-13T22:57:12.056Z,96192.07
2019-03-13T22:59:59.985Z,96216.08
2019-03-13T23:02:28.685Z,96228.66
2019-03-13T23:05:16.582Z,96217.64
2019-03-13T23:08:04.502Z,96218.18
2019-03-13T23:10:52.577Z,96226.79
2019-03-13T23:15:55.797Z,96226.33
2019-03-13T23:18:24.662Z,96238.28
2019-03-13T23:20:53.267Z,96237.55
2019-03-13T23:23:21.947Z,96239.16
2019-03-13T23:25:50.747Z,96243.18
2019-03-13T23:28:19.329Z,96246.92
2019-03-13T23:31:07.269Z,96253.30
2019-03-13T23:33:35.972Z,96249.54
2019-03-13T23:36:23.836Z,96251.41
2019-03-13T23:38:52.566Z,96240.91
2019-03-13T23:41:21.244Z,96245.72
2019-03-13T23:43:50.034Z,96248.59
2019-03-13T23:46:18.752Z,96247.24
2019-03-13T23:48:47.402Z,96252.78
2019-03-13T23:51:16.113Z,96245.09
2019-03-13T23:53:44.768Z,96259.14
2019-03-13T23:56:13.534Z,96264.03
2019-03-13T23:59:21.993Z,96254.72
